ΕΜΥ, Εθνική Μετεωρολογική Υπηρεσία - Δελτία Καιρού, Προγνώσεις

ΑΕΡΟΝΑΥΤΙΛΙΑ

GREEK AIRPORTS CODES

LGKL 231050Z 02013KT CAVOK 28/01 Q1011=

EUROPEAN AIRPORTS CODES

TAF LGTT 231000Z 2312/2321 06005KT 9999 FEW025 BECMG 2312/2314 24008KT=